createdAt,value
2022-12-18T00:01:27.709Z,97582.34
2022-12-18T00:03:56.485Z,97615.28
2022-12-18T00:06:26.421Z,97625.66
2022-12-18T00:08:53.799Z,97633.22
2022-12-18T00:11:22.983Z,97633.63
2022-12-18T00:13:50.528Z,97634.06
2022-12-18T00:16:22.838Z,97638.41
2022-12-18T00:18:51.189Z,97633.13
2022-12-18T00:21:19.426Z,97596.31
2022-12-18T00:23:47.612Z,97637.66
2022-12-18T00:26:20.564Z,97627.06
2022-12-18T00:28:47.946Z,97641.97
2022-12-18T00:31:20.998Z,97647.22
2022-12-18T00:33:48.584Z,97660.78
2022-12-18T00:36:22.436Z,97640.44
2022-12-18T00:38:49.545Z,97661.59
2022-12-18T00:41:39.427Z,97665.81
2022-12-18T00:44:08.208Z,97674.00
2022-12-18T00:46:35.156Z,97676.69
2022-12-18T00:49:02.779Z,97685.00
2022-12-18T00:51:29.711Z,97667.00
2022-12-18T00:53:56.673Z,97684.28
2022-12-18T00:56:23.884Z,97679.91
2022-12-18T00:58:50.963Z,97670.03
2022-12-18T01:01:18.611Z,97669.75
2022-12-18T01:03:47.604Z,97670.13
2022-12-18T01:06:16.923Z,97666.44
2022-12-18T01:08:44.004Z,97631.16
2022-12-18T01:11:18.770Z,97671.31
2022-12-18T01:13:45.724Z,97678.47
2022-12-18T01:16:14.176Z,97667.78
2022-12-18T01:18:41.592Z,97669.38
2022-12-18T01:21:10.420Z,97663.41
2022-12-18T01:23:38.993Z,97665.31
2022-12-18T01:26:11.730Z,97667.16
2022-12-18T01:28:39.465Z,97670.16
2022-12-18T01:31:28.361Z,97681.38
2022-12-18T01:33:56.103Z,97666.81
2022-12-18T01:36:26.142Z,97667.56
2022-12-18T01:38:53.514Z,97656.88
2022-12-18T01:41:25.943Z,97668.06
2022-12-18T01:43:58.452Z,97667.09
2022-12-18T01:46:27.112Z,97656.81
2022-12-18T01:49:02.003Z,97663.94
2022-12-18T01:51:30.940Z,97659.41
2022-12-18T01:53:58.812Z,97663.50
2022-12-18T01:56:25.735Z,97663.00
2022-12-18T01:59:12.699Z,97671.66
2022-12-18T02:01:39.728Z,97652.94
2022-12-18T02:04:35.983Z,97673.25
2022-12-18T02:07:16.036Z,97687.59
2022-12-18T02:09:51.652Z,97691.78
2022-12-18T02:12:25.579Z,97683.22
2022-12-18T02:15:06.878Z,97682.88
2022-12-18T02:18:06.824Z,97682.06
2022-12-18T02:20:38.413Z,97669.25
2022-12-18T02:23:24.292Z,97669.66
2022-12-18T02:26:12.364Z,97670.56
2022-12-18T02:28:45.663Z,97638.03
2022-12-18T02:31:17.451Z,97680.03
2022-12-18T02:33:46.574Z,97669.78
2022-12-18T02:36:15.821Z,97681.00
2022-12-18T02:45:28.214Z,97679.44
2022-12-18T02:47:55.241Z,97689.75
2022-12-18T02:50:35.876Z,97693.94
2022-12-18T02:53:09.217Z,97673.75
2022-12-18T02:56:08.593Z,97686.47
2022-12-18T02:58:41.522Z,97693.53
2022-12-18T03:01:15.224Z,97695.25
2022-12-18T03:03:54.060Z,97683.69
2022-12-18T03:06:38.331Z,97691.22
2022-12-18T03:09:12.113Z,97696.84
2022-12-18T03:12:01.650Z,97696.47
2022-12-18T03:14:32.204Z,97710.78
2022-12-18T03:17:02.870Z,97693.66
2022-12-18T03:19:32.888Z,97690.75
2022-12-18T03:22:04.404Z,97710.78
2022-12-18T03:24:41.114Z,97710.16
2022-12-18T03:27:15.146Z,97711.22
2022-12-18T03:29:54.912Z,97717.19
2022-12-18T03:32:31.980Z,97725.25
2022-12-18T03:35:05.419Z,97730.19
2022-12-18T03:37:36.127Z,97735.19
2022-12-18T03:40:05.790Z,97733.38
2022-12-18T03:42:58.932Z,97739.19
2022-12-18T03:45:54.923Z,97741.88
2022-12-18T03:48:45.060Z,97742.38
2022-12-18T03:51:23.464Z,97746.31
2022-12-18T03:54:03.380Z,97744.44
2022-12-18T03:56:39.805Z,97749.69
2022-12-18T03:59:11.065Z,97752.34
2022-12-18T04:01:43.918Z,97743.66
2022-12-18T04:04:15.379Z,97747.69
2022-12-18T04:06:45.668Z,97756.47
2022-12-18T04:09:14.737Z,97759.91
2022-12-18T04:11:45.450Z,97762.50
2022-12-18T04:14:17.959Z,97760.84
2022-12-18T04:16:45.683Z,97769.44
2022-12-18T04:19:15.939Z,97754.28
2022-12-18T04:21:44.724Z,97766.69
2022-12-18T04:24:13.736Z,97765.63
2022-12-18T04:26:47.077Z,97770.28
2022-12-18T04:29:18.786Z,97772.50
2022-12-18T04:31:46.142Z,97773.78
2022-12-18T04:34:13.089Z,97777.25
2022-12-18T04:36:47.953Z,97779.66
2022-12-18T04:39:20.750Z,97795.16
2022-12-18T04:41:49.972Z,97780.84
2022-12-18T04:44:16.969Z,97804.53
2022-12-18T04:46:44.238Z,97805.97
2022-12-18T04:49:14.503Z,97818.38
2022-12-18T04:51:41.342Z,97821.03
2022-12-18T04:54:08.204Z,97823.50
2022-12-18T04:56:35.003Z,97826.31
2022-12-18T04:59:01.871Z,97842.06
2022-12-18T05:01:34.313Z,97832.97
2022-12-18T05:04:02.747Z,97846.66
2022-12-18T05:06:29.738Z,97847.38
2022-12-18T05:08:56.679Z,97857.75
2022-12-18T05:11:23.569Z,97847.81
2022-12-18T05:13:50.366Z,97854.72
2022-12-18T05:16:17.348Z,97858.00
2022-12-18T05:18:44.431Z,97857.00
2022-12-18T05:21:11.405Z,97865.75
2022-12-18T05:23:38.938Z,97868.44
2022-12-18T05:26:08.762Z,97861.41
2022-12-18T05:28:37.431Z,97867.38
2022-12-18T05:31:05.436Z,97870.63
2022-12-18T05:33:35.339Z,97880.00
2022-12-18T05:36:03.954Z,97876.72
2022-12-18T05:38:32.256Z,97872.72
2022-12-18T05:40:59.625Z,97871.88
2022-12-18T05:43:27.865Z,97879.13
2022-12-18T05:45:55.034Z,97878.13
2022-12-18T05:48:22.387Z,97886.63
2022-12-18T05:50:50.713Z,97884.75
2022-12-18T05:53:20.387Z,97892.53
2022-12-18T05:55:48.060Z,97888.28
2022-12-18T05:58:15.546Z,97894.06
2022-12-18T06:00:47.395Z,97896.19
2022-12-18T06:03:14.858Z,97904.81
2022-12-18T06:05:44.406Z,97910.53
2022-12-18T06:08:12.291Z,97911.25
2022-12-18T06:10:39.754Z,97902.88
2022-12-18T06:13:07.834Z,97925.41
2022-12-18T06:15:37.805Z,97924.41
2022-12-18T06:18:04.700Z,97928.50
2022-12-18T06:20:33.681Z,97929.50
2022-12-18T06:23:01.301Z,97918.09
2022-12-18T06:25:28.263Z,97938.50
2022-12-18T06:27:55.268Z,97935.66
2022-12-18T06:30:22.236Z,97953.66
2022-12-18T06:32:53.156Z,97954.84
2022-12-18T06:35:23.815Z,97961.75
2022-12-18T06:37:50.886Z,97954.19
2022-12-18T06:40:18.031Z,97959.28
2022-12-18T06:42:44.894Z,97982.16
2022-12-18T06:45:12.569Z,97989.13
2022-12-18T06:47:39.436Z,97993.31
2022-12-18T06:50:06.792Z,97996.09
2022-12-18T06:52:34.570Z,97983.13
2022-12-18T06:55:02.132Z,97993.44
2022-12-18T06:57:29.711Z,97998.69
2022-12-18T06:59:56.491Z,97993.50
2022-12-18T07:02:23.435Z,98009.03
2022-12-18T07:04:50.264Z,98016.16
2022-12-18T07:07:17.145Z,98016.81
2022-12-18T07:09:44.012Z,98015.81
2022-12-18T07:12:10.912Z,98019.78
2022-12-18T07:14:37.750Z,98021.59
2022-12-18T07:17:04.660Z,98034.38
2022-12-18T07:19:33.398Z,98040.00
2022-12-18T07:22:07.319Z,98039.88
2022-12-18T07:24:42.209Z,98033.31
2022-12-18T07:27:09.235Z,98035.75
2022-12-18T07:29:37.038Z,98040.81
2022-12-18T07:32:05.136Z,98040.09
2022-12-18T07:34:31.971Z,98032.31
2022-12-18T07:36:59.264Z,98044.38
2022-12-18T07:39:26.478Z,98033.38
2022-12-18T07:42:11.859Z,98018.00
2022-12-18T07:44:40.536Z,98038.63
2022-12-18T07:47:11.761Z,98044.28
2022-12-18T07:49:41.397Z,98013.66
2022-12-18T07:52:09.230Z,98035.44
2022-12-18T07:54:36.209Z,98039.94
2022-12-18T07:57:03.096Z,98050.31
2022-12-18T07:59:29.957Z,98055.50
2022-12-18T08:01:57.041Z,98059.13
2022-12-18T08:04:24.233Z,98063.59
2022-12-18T08:06:51.893Z,98057.56
2022-12-18T08:09:18.884Z,98052.88
2022-12-18T08:11:46.271Z,98056.34
2022-12-18T08:14:13.175Z,98060.59
2022-12-18T08:16:40.872Z,98066.63
2022-12-18T08:19:07.744Z,98071.63
2022-12-18T08:21:35.285Z,98070.53
2022-12-18T08:24:02.915Z,98076.00
2022-12-18T08:26:31.280Z,98068.88
2022-12-18T08:28:59.978Z,98071.41
2022-12-18T08:31:28.666Z,98074.91
2022-12-18T08:33:56.377Z,98070.72
2022-12-18T08:36:24.984Z,98063.00
2022-12-18T08:38:53.105Z,98079.34
2022-12-18T08:41:21.427Z,98077.06
2022-12-18T08:44:07.993Z,98047.16
2022-12-18T08:46:42.783Z,98076.94
2022-12-18T08:49:10.955Z,98073.50
2022-12-18T08:51:38.371Z,98062.25
2022-12-18T08:54:06.615Z,98073.13
2022-12-18T08:56:34.291Z,98045.22
2022-12-18T08:59:01.391Z,98055.78
2022-12-18T09:01:28.617Z,98076.28
2022-12-18T09:03:55.713Z,98097.13
2022-12-18T09:06:23.585Z,98096.38
2022-12-18T09:08:51.081Z,98094.84
2022-12-18T09:11:33.378Z,98099.13
2022-12-18T09:14:26.847Z,98066.81
2022-12-18T09:16:53.845Z,98103.84
2022-12-18T09:19:20.756Z,98095.13
2022-12-18T09:21:48.414Z,98097.22
2022-12-18T09:24:16.506Z,98108.66
2022-12-18T09:26:43.890Z,98107.22
2022-12-18T09:29:16.431Z,98100.50
2022-12-18T09:31:46.070Z,98114.75
2022-12-18T09:34:13.224Z,98106.47
2022-12-18T09:36:40.323Z,98114.19
2022-12-18T09:39:08.848Z,98101.25
2022-12-18T09:41:44.179Z,98111.13
2022-12-18T09:44:32.328Z,98104.69
2022-12-18T09:47:17.453Z,98109.88
2022-12-18T09:49:47.017Z,98109.06
2022-12-18T09:52:26.622Z,98112.41
2022-12-18T09:55:06.871Z,98109.19
2022-12-18T09:57:38.213Z,98100.44
2022-12-18T10:00:25.512Z,98092.34
2022-12-18T10:02:57.452Z,98110.63
2022-12-18T10:05:51.979Z,98108.97
2022-12-18T10:08:40.711Z,98112.47
2022-12-18T10:11:35.398Z,98112.59
2022-12-18T10:14:13.262Z,98107.94
2022-12-18T10:16:55.195Z,98117.31
2022-12-18T10:19:24.713Z,98125.28
2022-12-18T10:22:22.504Z,98122.97
2022-12-18T10:25:00.589Z,98119.47
2022-12-18T10:27:28.440Z,98121.00
2022-12-18T10:29:55.879Z,98123.03
2022-12-18T10:32:29.130Z,98125.25
2022-12-18T10:35:00.774Z,98122.28
2022-12-18T10:37:30.550Z,98127.13
2022-12-18T10:40:21.955Z,98120.81
2022-12-18T10:43:12.843Z,98120.59
2022-12-18T10:45:40.507Z,98112.69
2022-12-18T10:48:20.944Z,98119.34
2022-12-18T10:53:38.451Z,98123.22
2022-12-18T10:56:07.654Z,98111.81
2022-12-18T10:58:36.483Z,98129.97
2022-12-18T11:01:08.243Z,98124.66
2022-12-18T11:03:40.380Z,98119.50
2022-12-18T11:06:16.019Z,98138.44
2022-12-18T11:08:58.841Z,98137.59
2022-12-18T11:11:26.511Z,98119.56
2022-12-18T11:14:20.023Z,98133.03
2022-12-18T11:19:42.037Z,98142.69
2022-12-18T11:22:27.318Z,98143.69
2022-12-18T11:28:43.442Z,98142.72
2022-12-18T11:31:28.923Z,98149.88
2022-12-18T11:34:31.031Z,98134.88
2022-12-18T11:37:01.640Z,98159.63
2022-12-18T11:39:39.688Z,98163.56
2022-12-18T11:42:20.811Z,98159.22
2022-12-18T11:44:50.540Z,98162.78
2022-12-18T11:47:40.106Z,98111.75
2022-12-18T11:50:15.493Z,98148.94
2022-12-18T11:52:43.503Z,98113.91
2022-12-18T11:55:16.984Z,98147.31
2022-12-18T11:58:13.938Z,98153.28
2022-12-18T12:00:52.075Z,98148.75
2022-12-18T12:03:44.321Z,98142.72
2022-12-18T12:06:23.526Z,98136.50
2022-12-18T12:09:42.243Z,98148.63
2022-12-18T12:12:17.989Z,98155.84
2022-12-18T12:15:23.300Z,98158.72
2022-12-18T12:18:28.802Z,98149.91
2022-12-18T12:21:18.189Z,98157.44
2022-12-18T12:24:22.281Z,98174.31
2022-12-18T12:27:01.094Z,98170.56
2022-12-18T12:29:43.779Z,98175.44
2022-12-18T12:32:43.917Z,98157.44
2022-12-18T12:35:30.145Z,98182.28
2022-12-18T12:38:21.567Z,98182.94
2022-12-18T12:41:02.747Z,98184.00
2022-12-18T12:46:40.430Z,98197.94
2022-12-18T12:49:16.520Z,98203.00
2022-12-18T12:51:48.295Z,98190.13
2022-12-18T12:54:24.297Z,98199.22
2022-12-18T12:56:59.582Z,98211.19
2022-12-18T12:59:39.717Z,98204.63
2022-12-18T13:02:34.622Z,98208.03
2022-12-18T13:05:20.266Z,98208.75
2022-12-18T13:08:10.288Z,98214.75
2022-12-18T13:10:39.015Z,98217.66
2022-12-18T13:13:10.487Z,98201.78
2022-12-18T13:15:42.619Z,98211.84
2022-12-18T13:18:09.927Z,98216.84
2022-12-18T13:20:43.100Z,98217.63
2022-12-18T13:23:28.040Z,98221.81
2022-12-18T13:26:16.557Z,98214.22
2022-12-18T13:28:46.439Z,98225.25
2022-12-18T13:31:32.408Z,98216.88
2022-12-18T13:34:26.148Z,98215.94
2022-12-18T13:36:56.591Z,98235.81
2022-12-18T13:39:32.768Z,98239.34
2022-12-18T13:42:07.288Z,98240.22
2022-12-18T13:44:40.951Z,98241.94
2022-12-18T13:47:32.619Z,98236.75
2022-12-18T13:50:00.177Z,98246.19
2022-12-18T13:52:30.172Z,98245.25
2022-12-18T13:55:00.314Z,98245.97
2022-12-18T13:57:31.828Z,98244.31
2022-12-18T13:59:59.930Z,98247.94
2022-12-18T14:02:29.494Z,98240.28
2022-12-18T14:04:57.751Z,98246.88
2022-12-18T14:07:34.526Z,98235.75
2022-12-18T14:13:09.392Z,98259.91
2022-12-18T14:15:42.499Z,98268.59
2022-12-18T14:18:26.668Z,98279.34
2022-12-18T14:20:57.891Z,98270.16
2022-12-18T14:23:40.340Z,98270.22
2022-12-18T14:26:29.337Z,98274.31
2022-12-18T14:29:26.638Z,98275.47
2022-12-18T14:32:18.735Z,98274.19
2022-12-18T14:34:58.030Z,98285.91
2022-12-18T14:37:26.785Z,98289.28
2022-12-18T14:40:10.892Z,98281.09
2022-12-18T14:42:38.677Z,98301.38
2022-12-18T14:45:39.136Z,98306.66
2022-12-18T14:48:10.264Z,98304.31
2022-12-18T14:50:39.550Z,98292.69
2022-12-18T14:53:07.824Z,98280.53
2022-12-18T14:55:34.798Z,98295.78
2022-12-18T14:58:02.781Z,98299.59
2022-12-18T15:00:29.842Z,98297.06
2022-12-18T15:02:58.936Z,98304.72
2022-12-18T15:05:30.051Z,98296.19
2022-12-18T15:08:00.000Z,98320.94
2022-12-18T15:10:35.846Z,98302.69
2022-12-18T15:15:45.881Z,98316.59
2022-12-18T15:18:20.617Z,98321.66
2022-12-18T15:20:52.396Z,98325.69
2022-12-18T15:23:27.265Z,98310.09
2022-12-18T15:26:03.575Z,98317.84
2022-12-18T15:28:36.140Z,98331.53
2022-12-18T15:31:18.259Z,98341.31
2022-12-18T15:34:19.172Z,98346.47
2022-12-18T15:36:46.129Z,98349.97
2022-12-18T15:39:14.258Z,98364.56
2022-12-18T15:41:41.644Z,98370.59
2022-12-18T15:44:25.737Z,98375.81
2022-12-18T15:46:52.543Z,98366.41
2022-12-18T15:49:19.340Z,98385.81
2022-12-18T15:51:50.415Z,98377.00
2022-12-18T15:54:17.826Z,98358.44
2022-12-18T15:57:03.541Z,98378.94
2022-12-18T15:59:30.386Z,98389.50
2022-12-18T16:01:57.736Z,98388.75
2022-12-18T16:04:25.741Z,98382.50
2022-12-18T16:09:39.743Z,98406.34
2022-12-18T16:12:11.536Z,98381.81
2022-12-18T16:14:38.457Z,98413.09
2022-12-18T16:17:11.316Z,98411.44
2022-12-18T16:19:38.139Z,98416.78
2022-12-18T16:22:05.948Z,98410.19
2022-12-18T16:24:37.056Z,98422.16
2022-12-18T16:27:04.454Z,98415.28
2022-12-18T16:29:31.417Z,98417.69
2022-12-18T16:31:59.943Z,98422.84
2022-12-18T16:34:29.440Z,98421.19
2022-12-18T16:37:07.369Z,98425.47
2022-12-18T16:39:38.471Z,98428.94
2022-12-18T16:42:17.444Z,98429.94
2022-12-18T16:44:45.749Z,98433.53
2022-12-18T16:47:15.044Z,98430.22
2022-12-18T16:49:43.199Z,98438.75
2022-12-18T16:52:10.505Z,98442.22
2022-12-18T16:54:37.429Z,98442.34
2022-12-18T16:57:05.454Z,98439.63
2022-12-18T16:59:35.325Z,98438.00
2022-12-18T17:02:06.127Z,98455.25
2022-12-18T17:04:35.029Z,98441.53
2022-12-18T17:07:01.956Z,98454.38
2022-12-18T17:09:28.771Z,98459.56
2022-12-18T17:11:56.370Z,98460.25
2022-12-18T17:14:27.156Z,98470.53
2022-12-18T17:17:19.826Z,98485.94
2022-12-18T17:19:41.957Z,98480.97
2022-12-18T17:22:09.505Z,98474.09
2022-12-18T17:24:36.523Z,98483.44
2022-12-18T17:27:04.706Z,98482.66
2022-12-18T17:29:31.747Z,98460.47
2022-12-18T17:32:00.294Z,98492.19
2022-12-18T17:34:28.683Z,98495.59
2022-12-18T17:36:56.891Z,98494.91
2022-12-18T17:39:23.979Z,98486.38
2022-12-18T17:41:50.831Z,98489.91
2022-12-18T17:44:18.251Z,98507.72
2022-12-18T17:46:46.119Z,98511.94
2022-12-18T17:49:14.096Z,98519.56
2022-12-18T17:51:43.097Z,98514.31
2022-12-18T17:54:11.217Z,98520.19
2022-12-18T17:56:38.940Z,98519.44
2022-12-18T17:59:07.192Z,98518.56
2022-12-18T18:01:37.352Z,98526.31
2022-12-18T18:04:08.128Z,98540.31
2022-12-18T18:06:38.892Z,98533.38
2022-12-18T18:09:09.993Z,98551.34
2022-12-18T18:12:10.315Z,98548.03
2022-12-18T18:14:42.448Z,98521.44
2022-12-18T18:17:09.502Z,98549.59
2022-12-18T18:19:36.522Z,98560.13
2022-12-18T18:22:03.702Z,98561.13
2022-12-18T18:24:30.842Z,98562.06
2022-12-18T18:26:59.690Z,98560.31
2022-12-18T18:29:28.628Z,98574.84
2022-12-18T18:31:57.044Z,98573.97
2022-12-18T18:34:26.746Z,98580.72
2022-12-18T18:36:53.641Z,98572.88
2022-12-18T18:39:20.479Z,98589.13
2022-12-18T18:41:48.740Z,98587.41
2022-12-18T18:44:20.660Z,98597.66
2022-12-18T18:46:54.155Z,98594.22
2022-12-18T18:49:21.469Z,98597.56
2022-12-18T18:51:50.517Z,98602.81
2022-12-18T18:54:17.358Z,98580.66
2022-12-18T18:59:32.008Z,98606.16
2022-12-18T19:02:00.676Z,98606.06
2022-12-18T19:04:32.415Z,98599.28
2022-12-18T19:06:59.266Z,98608.63
2022-12-18T19:09:26.378Z,98607.84
2022-12-18T19:12:12.683Z,98604.47
2022-12-18T19:14:39.501Z,98610.34
2022-12-18T19:17:06.356Z,98613.13
2022-12-18T19:19:33.515Z,98600.25
2022-12-18T19:22:00.490Z,98621.75
2022-12-18T19:24:27.722Z,98616.59
2022-12-18T19:26:57.918Z,98594.44
2022-12-18T19:29:25.623Z,98621.88
2022-12-18T19:31:53.139Z,98589.41
2022-12-18T19:34:20.719Z,98627.16
2022-12-18T19:36:47.834Z,98623.63
2022-12-18T19:39:17.605Z,98621.06
2022-12-18T19:41:45.271Z,98640.00
2022-12-18T19:44:17.843Z,98613.50
2022-12-18T19:46:46.255Z,98635.84
2022-12-18T19:49:18.133Z,98637.50
2022-12-18T19:51:46.011Z,98629.03
2022-12-18T19:54:17.266Z,98617.91
2022-12-18T19:56:45.181Z,98635.94
2022-12-18T19:59:12.025Z,98641.97
2022-12-18T20:01:39.015Z,98633.41
2022-12-18T20:04:06.285Z,98638.59
2022-12-18T20:06:55.347Z,98628.38
2022-12-18T20:09:22.397Z,98634.38
2022-12-18T20:11:49.622Z,98635.22
2022-12-18T20:14:22.321Z,98643.78
2022-12-18T20:16:50.826Z,98671.16
2022-12-18T20:19:18.892Z,98628.31
2022-12-18T20:21:46.074Z,98663.47
2022-12-18T20:24:13.391Z,98656.59
2022-12-18T20:26:40.679Z,98656.63
2022-12-18T20:29:07.589Z,98672.03
2022-12-18T20:31:34.721Z,98679.78
2022-12-18T20:34:03.614Z,98678.00
2022-12-18T20:36:33.069Z,98690.91
2022-12-18T20:39:06.430Z,98696.03
2022-12-18T20:41:38.800Z,98675.41
2022-12-18T20:44:22.759Z,98689.22
2022-12-18T20:46:56.677Z,98680.63
2022-12-18T20:49:25.573Z,98684.06
2022-12-18T20:51:58.693Z,98685.78
2022-12-18T20:54:27.416Z,98678.06
2022-12-18T20:56:55.558Z,98665.19
2022-12-18T20:59:25.265Z,98670.34
2022-12-18T21:01:52.866Z,98692.63
2022-12-18T21:04:20.820Z,98680.63
2022-12-18T21:06:54.129Z,98672.91
2022-12-18T21:09:25.898Z,98671.22
2022-12-18T21:12:14.211Z,98692.69
2022-12-18T21:14:41.354Z,98694.38
2022-12-18T21:17:08.329Z,98687.53
2022-12-18T21:19:35.414Z,98708.94
2022-12-18T21:22:04.570Z,98687.53
2022-12-18T21:24:32.695Z,98696.91
2022-12-18T21:26:59.999Z,98710.63
2022-12-18T21:29:27.050Z,98694.38
2022-12-18T21:31:54.934Z,98707.25
2022-12-18T21:34:27.829Z,98707.28
2022-12-18T21:36:57.354Z,98705.63
2022-12-18T21:39:25.286Z,98703.88
2022-12-18T21:42:10.846Z,98685.06
2022-12-18T21:44:42.175Z,98707.38
2022-12-18T21:47:22.091Z,98689.34
2022-12-18T21:49:49.662Z,98695.38
2022-12-18T21:52:17.027Z,98687.66
2022-12-18T21:54:43.922Z,98702.22
2022-12-18T21:57:11.049Z,98711.69
2022-12-18T21:59:40.542Z,98715.06
2022-12-18T22:02:15.965Z,98716.78
2022-12-18T22:04:43.965Z,98715.06
2022-12-18T22:07:11.773Z,98704.78
2022-12-18T22:09:38.813Z,98703.06
2022-12-18T22:12:06.343Z,98693.66
2022-12-18T22:14:33.124Z,98703.91
2022-12-18T22:17:00.000Z,98692.81
2022-12-18T22:19:27.951Z,98698.78
2022-12-18T22:21:55.365Z,98712.47
2022-12-18T22:24:24.595Z,98699.66
2022-12-18T22:27:01.771Z,98700.50
2022-12-18T22:29:48.316Z,98708.22
2022-12-18T22:32:20.414Z,98713.34
2022-12-18T22:35:04.901Z,98710.78
2022-12-18T22:37:33.019Z,98698.78
2022-12-18T22:39:59.880Z,98713.38
2022-12-18T22:42:31.253Z,98718.53
2022-12-18T22:45:00.789Z,98719.34
2022-12-18T22:47:30.064Z,98712.50
2022-12-18T22:49:58.129Z,98722.81
2022-12-18T22:52:27.699Z,98715.06
2022-12-18T22:54:54.601Z,98726.25
2022-12-18T22:57:22.470Z,98725.34
2022-12-18T22:59:50.412Z,98722.75
2022-12-18T23:02:20.519Z,98721.91
2022-12-18T23:04:50.518Z,98689.38
2022-12-18T23:07:17.345Z,98715.06
2022-12-18T23:09:44.915Z,98717.59
2022-12-18T23:12:15.912Z,98715.03
2022-12-18T23:14:44.220Z,98711.63
2022-12-18T23:17:11.207Z,98704.75
2022-12-18T23:19:38.043Z,98719.38
2022-12-18T23:22:10.018Z,98714.22
2022-12-18T23:24:38.519Z,98708.19
2022-12-18T23:27:06.511Z,98721.94
2022-12-18T23:29:38.288Z,98726.22
2022-12-18T23:32:05.122Z,98696.22
2022-12-18T23:34:32.116Z,98731.34
2022-12-18T23:36:59.008Z,98737.28
2022-12-18T23:39:29.298Z,98711.63
2022-12-18T23:42:00.495Z,98740.75
2022-12-18T23:44:28.150Z,98743.31
2022-12-18T23:46:55.532Z,98748.44
2022-12-18T23:49:22.691Z,98746.66
2022-12-18T23:51:49.675Z,98767.19
2022-12-18T23:54:16.609Z,98759.47
2022-12-18T23:56:43.424Z,98765.50
2022-12-18T23:59:10.341Z,98769.75
